Time;durP1;ratioP1;P1;durP2;ratioP2;P2;SDS_P1;SDS_P2;PMS_P1;PMS_P2;Temp;Humidity;BMP_temperature;BMP_pressure;BME280_temperature;BME280_humidity;BME280_pressure;Samples;Min_cycle;Max_cycle;Signal;HPM_P1;HPM_P2
2021/06/30 00:06:12;;;;;;;7.93;5.10;;;20.10;97.30;;;;;;5071188;28;20428;-87
2021/06/30 00:08:51;;;;;;;4.43;3.70;;;20.10;97.30;;;;;;5069713;28;20404;-87
2021/06/30 00:11:51;;;;;;;6.17;3.80;;;20.00;97.30;;;;;;5146673;22;20512;-88
2021/06/30 00:14:19;;;;;;;7.63;4.10;;;20.00;97.30;;;;;;5111691;28;20485;-87
2021/06/30 00:16:48;;;;;;;7.07;3.73;;;19.90;97.30;;;;;;5110985;28;20481;-88
2021/06/30 00:19:19;;;;;;;10.83;3.97;;;19.90;97.30;;;;;;5110572;28;20459;-88
2021/06/30 00:21:45;;;;;;;3.53;3.40;;;19.80;97.30;;;;;;5128716;27;20455;-88
2021/06/30 00:24:11;;;;;;;5.70;3.93;;;19.80;97.30;;;;;;5235379;22;20542;-92
2021/06/30 00:26:50;;;;;;;5.83;3.73;;;19.80;97.30;;;;;;5113696;28;20199;-93
2021/06/30 00:29:22;;;;;;;5.33;3.70;;;19.80;97.30;;;;;;5111242;28;20181;-92
2021/06/30 00:31:50;;;;;;;5.87;4.47;;;19.70;97.30;;;;;;5096520;28;20392;-92
2021/06/30 00:55:08;;;;;;;9.40;5.17;;;19.40;97.30;;;;;;5087704;28;20492;-93
2021/06/30 00:58:00;;;;;;;6.30;4.97;;;19.40;97.30;;;;;;5085703;28;20519;-93
2021/06/30 01:01:21;;;;;;;8.60;4.67;;;19.30;97.30;;;;;;5032033;28;21056;-92
2021/06/30 01:06:18;;;;;;;8.03;4.60;;;19.20;97.30;;;;;;5087974;28;20456;-92
2021/06/30 01:08:45;;;;;;;5.63;4.60;;;19.20;97.30;;;;;;5005676;28;20412;-91
2021/06/30 01:11:11;;;;;;;4.93;4.37;;;19.20;97.30;;;;;;4995163;28;20428;-91
2021/06/30 01:13:39;;;;;;;6.30;5.00;;;19.20;97.30;;;;;;4994393;28;20409;-92
2021/06/30 01:16:05;;;;;;;10.53;4.77;;;19.20;97.30;;;;;;4973980;28;20446;-91
2021/06/30 01:18:32;;;;;;;8.43;5.00;;;19.20;97.30;;;;;;4973410;28;20991;-91
2021/06/30 01:20:59;;;;;;;7.20;4.80;;;19.10;97.30;;;;;;4973422;28;20224;-91
2021/06/30 01:23:25;;;;;;;6.90;5.20;;;19.10;97.30;;;;;;5042413;28;20509;-92
2021/06/30 01:25:52;;;;;;;6.90;4.90;;;19.10;97.30;;;;;;4973979;28;20460;-91
2021/06/30 01:28:19;;;;;;;5.40;4.83;;;19.00;97.30;;;;;;4973325;28;20433;-91
2021/06/30 01:30:49;;;;;;;7.80;5.37;;;19.00;97.30;;;;;;4973138;28;20426;-91
2021/06/30 01:33:17;;;;;;;5.37;4.60;;;19.00;97.30;;;;;;4973065;28;20455;-90
2021/06/30 01:35:43;;;;;;;9.47;4.70;;;18.90;97.30;;;;;;4973196;28;20430;-91
2021/06/30 01:38:09;;;;;;;6.43;4.00;;;18.90;97.30;;;;;;4974119;28;21077;-90
2021/06/30 01:40:35;;;;;;;4.77;4.30;;;18.90;97.30;;;;;;4973690;28;20178;-91
2021/06/30 01:43:01;;;;;;;5.47;4.67;;;18.90;97.30;;;;;;4973649;28;20668;-91
2021/06/30 01:45:30;;;;;;;6.67;4.50;;;18.90;97.30;;;;;;4973526;28;20226;-91
2021/06/30 01:47:55;;;;;;;5.83;4.73;;;18.90;97.30;;;;;;4974300;28;20514;-92
2021/06/30 01:50:22;;;;;;;5.67;4.30;;;18.90;97.30;;;;;;4974388;28;20449;-91
2021/06/30 01:52:47;;;;;;;6.70;4.63;;;18.90;97.30;;;;;;4974077;28;20183;-91
2021/06/30 01:55:14;;;;;;;8.03;4.50;;;18.90;97.30;;;;;;4974688;28;20525;-90
2021/06/30 01:57:48;;;;;;;4.90;4.50;;;18.90;97.30;;;;;;4975762;28;20209;-91
2021/06/30 02:00:16;;;;;;;6.43;5.27;;;19.00;97.30;;;;;;4974770;28;20414;-91
2021/06/30 02:02:45;;;;;;;6.13;4.70;;;18.90;97.30;;;;;;4974392;28;20507;-91
2021/06/30 02:05:14;;;;;;;9.77;5.27;;;18.90;97.30;;;;;;4974018;28;20527;-91
2021/06/30 02:07:47;;;;;;;13.47;5.43;;;18.90;97.30;;;;;;4974949;28;20419;-91
2021/06/30 02:10:13;;;;;;;6.10;5.10;;;18.90;97.30;;;;;;4973924;28;20457;-91
2021/06/30 02:12:40;;;;;;;5.97;4.70;;;18.90;97.30;;;;;;4973183;28;20959;-92
2021/06/30 02:15:09;;;;;;;8.30;5.17;;;18.90;97.30;;;;;;4973287;28;20438;-91
2021/06/30 02:17:34;;;;;;;5.70;4.57;;;18.90;97.30;;;;;;5040763;28;20418;-91
2021/06/30 02:20:00;;;;;;;5.93;5.00;;;18.90;97.30;;;;;;4973214;28;20476;-90
2021/06/30 02:22:26;;;;;;;6.13;5.03;;;18.80;97.30;;;;;;4971327;28;20190;-91
2021/06/30 02:24:55;;;;;;;7.20;4.83;;;18.80;97.30;;;;;;4972374;28;20698;-91
2021/06/30 02:27:21;;;;;;;10.47;5.00;;;18.80;97.30;;;;;;4972124;28;20185;-91
2021/06/30 02:29:46;;;;;;;7.33;4.70;;;18.80;97.30;;;;;;4971963;28;20426;-90
2021/06/30 02:32:12;;;;;;;7.03;4.77;;;18.80;97.30;;;;;;4972351;28;20244;-91
2021/06/30 02:34:37;;;;;;;6.37;4.33;;;18.80;97.30;;;;;;4973509;28;20211;-90
2021/06/30 02:37:03;;;;;;;7.30;4.30;;;18.80;97.30;;;;;;4973423;28;20186;-91
2021/06/30 02:39:29;;;;;;;5.93;4.63;;;18.70;97.30;;;;;;4973521;28;20203;-91
2021/06/30 02:41:57;;;;;;;5.90;4.70;;;18.70;97.30;;;;;;4974351;28;20221;-91
2021/06/30 02:44:22;;;;;;;7.90;4.87;;;18.70;97.30;;;;;;5041362;28;20209;-91
2021/06/30 02:46:48;;;;;;;4.57;4.27;;;18.80;97.30;;;;;;4972782;28;20422;-90
2021/06/30 02:49:14;;;;;;;5.23;4.70;;;18.70;97.30;;;;;;4973303;28;20189;-91
2021/06/30 02:51:39;;;;;;;6.30;4.63;;;18.80;97.30;;;;;;4973448;28;20286;-90
2021/06/30 02:54:05;;;;;;;7.57;4.50;;;18.70;97.30;;;;;;4973108;28;20202;-91
2021/06/30 02:56:30;;;;;;;5.10;4.07;;;18.80;97.30;;;;;;4973150;28;20245;-91
2021/06/30 02:58:58;;;;;;;8.60;4.80;;;18.70;97.30;;;;;;4973675;28;20202;-91
2021/06/30 03:01:23;;;;;;;11.73;4.53;;;18.70;97.30;;;;;;4973104;28;20269;-91
2021/06/30 03:03:49;;;;;;;9.70;5.10;;;18.70;97.30;;;;;;4973393;28;20873;-91
2021/06/30 03:06:14;;;;;;;7.70;5.03;;;18.70;97.30;;;;;;4972762;28;20222;-90
2021/06/30 03:08:40;;;;;;;7.40;5.33;;;18.70;97.30;;;;;;4972156;28;20182;-90
2021/06/30 03:11:05;;;;;;;7.73;4.70;;;18.70;97.30;;;;;;4971343;28;20543;-91
2021/06/30 03:13:31;;;;;;;9.57;5.40;;;18.70;97.30;;;;;;4971629;28;20185;-92
2021/06/30 03:15:56;;;;;;;11.47;5.73;;;18.70;97.30;;;;;;4971459;28;20207;-90
2021/06/30 03:18:22;;;;;;;9.60;5.67;;;18.70;97.30;;;;;;4971087;28;20214;-91
2021/06/30 03:20:47;;;;;;;10.00;4.93;;;18.70;97.30;;;;;;4970602;28;20265;-90
2021/06/30 03:23:13;;;;;;;7.90;4.80;;;18.70;97.30;;;;;;4971400;28;20186;-91
2021/06/30 03:25:39;;;;;;;5.13;4.33;;;18.70;97.30;;;;;;4971286;28;20288;-90
2021/06/30 03:28:08;;;;;;;8.63;4.27;;;18.70;97.30;;;;;;4971017;28;20414;-90
2021/06/30 03:30:34;;;;;;;7.67;4.40;;;18.70;97.30;;;;;;4973356;28;20178;-90
2021/06/30 03:33:01;;;;;;;6.73;4.50;;;18.70;97.30;;;;;;4971463;28;20456;-90
2021/06/30 03:35:27;;;;;;;5.23;4.20;;;18.70;97.30;;;;;;4972174;28;20453;-90
2021/06/30 03:37:54;;;;;;;9.47;3.90;;;18.70;97.30;;;;;;4972123;28;20422;-91
2021/06/30 03:40:19;;;;;;;4.50;3.17;;;18.70;97.30;;;;;;4972631;28;20426;-91
2021/06/30 03:42:45;;;;;;;6.13;3.40;;;18.60;97.30;;;;;;4980298;28;20437;-93
2021/06/30 03:45:11;;;;;;;5.93;3.73;;;18.60;97.30;;;;;;4988775;28;20201;-90
2021/06/30 03:47:36;;;;;;;4.47;3.53;;;18.60;97.30;;;;;;4975743;28;20171;-90
2021/06/30 03:50:12;;;;;;;6.73;3.17;;;18.60;97.30;;;;;;4973640;28;20178;-90
2021/06/30 04:18:11;;;;;;;5.53;2.83;;;18.30;97.30;;;;;;4529856;22;21552;-94
2021/06/30 04:20:40;;;;;;;3.00;2.80;;;18.30;97.30;;;;;;5073108;28;20448;-91
2021/06/30 04:23:06;;;;;;;3.67;3.20;;;18.30;97.30;;;;;;4973830;28;20423;-92
2021/06/30 04:25:31;;;;;;;5.60;3.40;;;18.30;97.30;;;;;;5052388;28;20511;-91
2021/06/30 04:28:00;;;;;;;6.57;3.77;;;18.30;97.30;;;;;;5076699;28;20622;-89
2021/06/30 04:30:25;;;;;;;5.27;3.27;;;18.30;97.30;;;;;;5076601;28;20242;-90
2021/06/30 04:32:51;;;;;;;4.50;3.47;;;18.30;97.30;;;;;;5078457;28;20504;-88
2021/06/30 04:35:16;;;;;;;5.10;3.47;;;18.30;97.30;;;;;;5076512;28;20206;-89
2021/06/30 04:37:42;;;;;;;4.93;3.20;;;18.30;97.30;;;;;;5077680;28;20537;-89
2021/06/30 04:40:08;;;;;;;4.43;3.77;;;18.30;97.30;;;;;;5077730;28;20176;-89
2021/06/30 04:42:34;;;;;;;3.50;3.13;;;18.20;97.30;;;;;;5077288;28;20178;-89
2021/06/30 04:44:59;;;;;;;5.93;3.53;;;18.30;97.30;;;;;;5097125;28;20810;-89
2021/06/30 04:47:25;;;;;;;7.03;3.60;;;18.30;97.30;;;;;;5081880;28;20163;-88
2021/06/30 04:49:50;;;;;;;4.63;3.63;;;18.30;97.30;;;;;;5081993;28;20193;-89
2021/06/30 04:52:16;;;;;;;6.23;3.40;;;18.30;97.30;;;;;;5082244;28;20194;-88
2021/06/30 04:54:41;;;;;;;4.47;3.83;;;18.20;97.30;;;;;;5082361;28;20186;-88
2021/06/30 04:57:06;;;;;;;4.50;3.53;;;18.20;97.30;;;;;;5081654;28;20577;-88
2021/06/30 04:59:32;;;;;;;4.77;3.63;;;18.20;97.30;;;;;;5080473;28;20206;-88
2021/06/30 05:01:57;;;;;;;8.80;4.00;;;18.20;97.30;;;;;;5078493;28;20174;-88
2021/06/30 05:04:23;;;;;;;5.30;3.03;;;18.20;97.30;;;;;;5079336;28;20194;-86
2021/06/30 05:06:49;;;;;;;4.47;3.60;;;18.30;97.30;;;;;;5078294;28;20175;-87
2021/06/30 05:09:16;;;;;;;9.03;4.10;;;18.20;97.30;;;;;;5079037;28;20174;-88
2021/06/30 05:11:42;;;;;;;8.13;3.80;;;18.20;97.30;;;;;;5078721;28;20174;-87
2021/06/30 05:14:07;;;;;;;6.90;4.10;;;18.20;97.30;;;;;;5078155;28;21013;-87
2021/06/30 05:16:33;;;;;;;8.67;4.57;;;18.20;97.30;;;;;;5097264;28;20224;-89
2021/06/30 05:18:58;;;;;;;7.07;4.20;;;18.20;97.30;;;;;;5078707;28;20235;-89
2021/06/30 05:21:24;;;;;;;7.83;4.20;;;18.10;97.30;;;;;;5080106;28;20174;-88
2021/06/30 05:23:50;;;;;;;6.30;4.47;;;18.10;97.30;;;;;;5078732;28;20532;-89
2021/06/30 05:26:16;;;;;;;10.03;5.27;;;18.00;97.30;;;;;;5071020;28;20683;-88
2021/06/30 05:28:42;;;;;;;6.23;4.83;;;18.00;97.30;;;;;;5078720;28;20783;-89
2021/06/30 05:31:10;;;;;;;8.70;5.33;;;18.00;97.30;;;;;;5090583;28;20460;-88
2021/06/30 05:33:36;;;;;;;10.10;5.60;;;18.00;97.30;;;;;;5106853;28;20169;-88
2021/06/30 05:36:03;;;;;;;8.90;4.90;;;17.90;97.30;;;;;;5084773;28;20435;-88
2021/06/30 05:38:28;;;;;;;9.87;5.30;;;17.90;97.30;;;;;;5093909;28;20200;-87
2021/06/30 05:40:56;;;;;;;6.50;4.73;;;17.80;97.30;;;;;;5086094;28;20416;-87
2021/06/30 05:43:22;;;;;;;7.50;5.10;;;17.80;97.30;;;;;;5098577;28;20272;-86
2021/06/30 05:45:48;;;;;;;9.43;5.90;;;17.80;97.30;;;;;;5186482;22;20527;-86
2021/06/30 05:48:14;;;;;;;10.17;5.87;;;17.70;97.30;;;;;;5105459;27;20177;-85
2021/06/30 05:50:40;;;;;;;11.97;6.10;;;17.70;97.30;;;;;;5099808;27;20495;-85
2021/06/30 05:53:06;;;;;;;10.93;6.43;;;17.70;97.30;;;;;;5103135;28;20403;-85
2021/06/30 05:55:32;;;;;;;10.03;6.50;;;17.60;97.30;;;;;;5106383;27;20414;-85
2021/06/30 05:57:57;;;;;;;13.67;6.80;;;17.50;97.30;;;;;;5107788;27;20195;-85
2021/06/30 06:00:23;;;;;;;13.37;7.37;;;17.50;97.30;;;;;;5125717;27;20182;-85
2021/06/30 06:02:50;;;;;;;9.20;6.20;;;17.40;97.30;;;;;;5108439;27;20517;-86
2021/06/30 06:05:16;;;;;;;9.57;6.33;;;17.40;97.30;;;;;;5105861;27;20591;-86
2021/06/30 06:07:42;;;;;;;11.40;6.47;;;17.40;97.30;;;;;;5107383;27;20899;-86
2021/06/30 06:10:10;;;;;;;11.33;6.80;;;17.30;97.30;;;;;;5123910;27;20514;-84
2021/06/30 06:12:37;;;;;;;10.17;6.40;;;17.30;97.30;;;;;;5105962;27;20439;-85
2021/06/30 06:15:06;;;;;;;12.73;6.40;;;17.20;97.30;;;;;;5124240;27;20893;-85
2021/06/30 06:17:32;;;;;;;13.10;6.53;;;17.20;97.30;;;;;;5103791;28;20522;-84
2021/06/30 06:19:57;;;;;;;11.17;6.70;;;17.10;97.30;;;;;;5106547;27;20537;-85
2021/06/30 06:22:23;;;;;;;9.50;6.90;;;17.10;97.30;;;;;;5106465;27;20439;-85
2021/06/30 06:24:48;;;;;;;16.63;6.53;;;17.10;97.30;;;;;;5104623;27;20256;-84
2021/06/30 06:27:14;;;;;;;9.80;6.40;;;17.10;97.30;;;;;;5104386;27;20174;-85
2021/06/30 06:29:40;;;;;;;13.00;6.57;;;17.10;97.30;;;;;;5105003;27;20592;-85
2021/06/30 06:32:06;;;;;;;15.03;7.27;;;17.10;97.30;;;;;;5104312;27;20209;-85
2021/06/30 06:34:32;;;;;;;12.90;7.37;;;17.10;97.30;;;;;;5106046;27;21170;-84
2021/06/30 06:37:00;;;;;;;15.70;7.60;;;17.10;97.30;;;;;;5107520;27;20419;-85
2021/06/30 06:39:28;;;;;;;12.60;7.50;;;17.10;97.30;;;;;;5102807;28;20518;-84
2021/06/30 06:41:54;;;;;;;12.77;7.20;;;17.10;97.30;;;;;;5096142;28;20451;-84
2021/06/30 06:44:19;;;;;;;11.60;7.40;;;17.10;97.30;;;;;;5093752;28;20416;-85
2021/06/30 06:46:45;;;;;;;19.17;7.40;;;17.10;97.30;;;;;;5093902;28;20779;-85
2021/06/30 06:49:11;;;;;;;14.47;8.77;;;17.10;97.30;;;;;;5094276;28;20663;-84
2021/06/30 06:51:37;;;;;;;11.50;7.53;;;17.00;97.30;;;;;;5094804;28;20232;-84
2021/06/30 06:54:04;;;;;;;14.87;8.27;;;17.10;97.30;;;;;;5095229;28;20230;-84
2021/06/30 06:56:30;;;;;;;10.80;7.20;;;17.10;97.30;;;;;;5094276;28;20420;-84
2021/06/30 06:58:56;;;;;;;14.80;7.97;;;17.10;97.30;;;;;;5095051;28;20458;-85
2021/06/30 07:01:23;;;;;;;13.90;8.10;;;17.00;97.30;;;;;;5114075;28;20446;-85
2021/06/30 07:03:49;;;;;;;14.10;8.03;;;17.00;97.30;;;;;;5094792;28;20503;-84
2021/06/30 07:06:14;;;;;;;15.23;7.87;;;17.10;97.30;;;;;;5102388;27;20895;-85
2021/06/30 07:08:41;;;;;;;13.83;7.77;;;17.10;97.30;;;;;;5114893;27;20172;-85
2021/06/30 07:11:09;;;;;;;15.13;7.90;;;17.10;97.30;;;;;;5115476;27;20204;-85
2021/06/30 07:13:38;;;;;;;15.37;8.97;;;17.10;97.30;;;;;;5114386;27;20461;-85
2021/06/30 07:16:04;;;;;;;22.70;11.10;;;17.10;97.30;;;;;;5115038;27;20460;-85
2021/06/30 07:18:31;;;;;;;21.90;11.77;;;17.10;97.30;;;;;;5115677;27;20511;-85
2021/06/30 07:20:56;;;;;;;17.47;10.93;;;17.10;97.30;;;;;;5115250;27;20442;-86
2021/06/30 07:23:22;;;;;;;27.87;10.93;;;17.10;97.30;;;;;;5114544;27;20424;-85
2021/06/30 07:25:50;;;;;;;17.17;10.90;;;17.10;97.30;;;;;;5133179;27;20166;-85
2021/06/30 07:28:16;;;;;;;19.47;11.10;;;17.10;97.30;;;;;;5115744;27;20181;-85
2021/06/30 07:30:41;;;;;;;14.10;8.90;;;17.20;97.30;;;;;;5114953;27;20435;-85
2021/06/30 07:33:07;;;;;;;20.70;10.43;;;17.20;97.30;;;;;;5114391;27;20173;-84
2021/06/30 07:35:32;;;;;;;20.27;11.03;;;17.20;97.30;;;;;;5114680;27;20209;-85
2021/06/30 07:37:58;;;;;;;14.10;10.60;;;17.20;97.30;;;;;;5115412;27;20431;-86
2021/06/30 07:40:24;;;;;;;14.40;9.80;;;17.20;97.30;;;;;;5114775;27;20591;-85
2021/06/30 07:42:49;;;;;;;16.10;9.53;;;17.20;97.30;;;;;;5114148;27;20282;-86
2021/06/30 07:45:15;;;;;;;23.23;10.33;;;17.20;97.30;;;;;;5114327;28;20253;-85
2021/06/30 07:47:40;;;;;;;21.50;10.30;;;17.20;97.30;;;;;;5115548;27;20282;-85
2021/06/30 07:50:07;;;;;;;15.70;9.80;;;17.20;97.30;;;;;;5114587;28;20209;-86
2021/06/30 07:52:33;;;;;;;19.97;9.50;;;17.20;97.30;;;;;;5113632;28;20197;-85
2021/06/30 07:54:59;;;;;;;15.27;9.07;;;17.20;97.30;;;;;;5114891;27;20785;-85
2021/06/30 07:57:24;;;;;;;19.77;9.57;;;17.20;97.30;;;;;;5115146;28;20425;-85
2021/06/30 07:59:50;;;;;;;15.73;8.40;;;17.20;97.30;;;;;;5114440;28;20232;-85
2021/06/30 08:02:16;;;;;;;11.60;8.33;;;17.30;97.30;;;;;;5114230;28;20197;-86
2021/06/30 08:04:41;;;;;;;17.87;8.43;;;17.30;97.30;;;;;;5114930;28;20173;-85
2021/06/30 08:07:07;;;;;;;11.33;7.90;;;17.30;97.30;;;;;;5117555;28;20418;-85
2021/06/30 08:09:33;;;;;;;12.80;8.20;;;17.30;97.30;;;;;;5093253;28;20181;-86
2021/06/30 08:12:05;;;;;;;13.20;8.13;;;17.40;97.30;;;;;;5093911;28;20664;-86
2021/06/30 08:14:31;;;;;;;12.70;8.07;;;17.40;97.30;;;;;;5094927;28;20496;-86
2021/06/30 08:16:57;;;;;;;18.73;7.60;;;17.40;97.30;;;;;;5112584;28;20428;-85
2021/06/30 08:19:23;;;;;;;13.47;8.13;;;17.40;97.30;;;;;;5111152;28;20486;-85
2021/06/30 08:21:48;;;;;;;13.43;8.70;;;17.40;97.30;;;;;;5097887;28;20193;-84
2021/06/30 08:24:14;;;;;;;15.90;9.23;;;17.40;97.30;;;;;;5098829;28;20408;-85
2021/06/30 08:26:40;;;;;;;14.13;9.00;;;17.50;97.30;;;;;;5098289;28;20633;-85
2021/06/30 08:29:06;;;;;;;12.87;8.03;;;17.50;97.30;;;;;;5097237;28;20269;-85
2021/06/30 08:31:32;;;;;;;13.23;8.60;;;17.50;97.30;;;;;;5098226;28;20463;-85
2021/06/30 08:33:57;;;;;;;19.40;8.87;;;17.50;97.30;;;;;;5098248;28;20177;-85
2021/06/30 08:36:23;;;;;;;13.20;9.43;;;17.50;97.30;;;;;;5097753;28;20177;-85
2021/06/30 08:38:49;;;;;;;13.20;8.50;;;17.60;97.30;;;;;;5097078;28;20201;-84
2021/06/30 08:41:17;;;;;;;13.43;8.80;;;17.70;97.30;;;;;;5097696;28;20602;-85
2021/06/30 08:43:42;;;;;;;14.67;8.80;;;17.70;97.30;;;;;;5097903;28;20416;-85
2021/06/30 08:46:08;;;;;;;10.60;7.00;;;17.70;97.30;;;;;;5097685;28;20553;-85
2021/06/30 08:48:36;;;;;;;12.50;8.10;;;17.70;97.30;;;;;;5097046;28;20234;-85
2021/06/30 08:51:02;;;;;;;8.93;6.80;;;17.70;97.30;;;;;;5097812;28;20225;-85
2021/06/30 08:53:29;;;;;;;8.73;7.13;;;17.70;97.30;;;;;;5098038;28;20412;-84
2021/06/30 08:55:55;;;;;;;12.80;5.90;;;17.80;97.30;;;;;;5096991;28;20465;-84
2021/06/30 08:58:21;;;;;;;11.30;6.30;;;17.70;97.30;;;;;;5097040;28;20455;-84
2021/06/30 09:00:48;;;;;;;11.10;6.70;;;17.70;97.30;;;;;;5098396;28;20442;-83
2021/06/30 09:03:16;;;;;;;7.77;6.10;;;17.70;97.30;;;;;;5098165;28;20416;-84
2021/06/30 09:08:43;;;;;;;12.13;5.90;;;17.70;97.30;;;;;;5115719;28;20411;-83
2021/06/30 09:11:16;;;;;;;9.07;6.33;;;17.70;97.30;;;;;;5098697;28;20794;-83
2021/06/30 09:13:42;;;;;;;8.53;6.47;;;17.70;97.30;;;;;;5116405;28;20412;-84
2021/06/30 09:16:09;;;;;;;8.87;6.00;;;17.70;97.30;;;;;;5097192;28;20466;-84
2021/06/30 09:18:42;;;;;;;8.13;5.80;;;17.70;97.30;;;;;;5098697;28;20458;-84
2021/06/30 09:21:22;;;;;;;7.17;5.80;;;17.70;97.30;;;;;;5099013;28;21005;-84
2021/06/30 09:24:12;;;;;;;9.70;5.70;;;17.70;97.30;;;;;;5097428;28;20412;-84
2021/06/30 09:27:04;;;;;;;8.73;6.30;;;17.70;97.30;;;;;;5096995;28;20418;-84
2021/06/30 09:29:30;;;;;;;6.80;5.63;;;17.70;97.30;;;;;;5098944;28;20475;-84
2021/06/30 09:31:55;;;;;;;10.33;6.07;;;17.70;97.30;;;;;;5096672;28;20518;-84
2021/06/30 09:34:28;;;;;;;9.07;6.73;;;17.70;97.30;;;;;;5097285;28;20226;-84
2021/06/30 09:37:06;;;;;;;10.33;6.80;;;17.80;97.30;;;;;;5097789;28;20178;-84
2021/06/30 09:39:36;;;;;;;7.73;6.40;;;17.80;97.30;;;;;;5098168;28;21048;-84
2021/06/30 09:42:13;;;;;;;8.80;6.00;;;17.80;97.30;;;;;;5098060;28;20524;-84
2021/06/30 09:44:40;;;;;;;11.10;7.40;;;17.80;97.30;;;;;;5097110;28;20493;-84
2021/06/30 09:47:07;;;;;;;13.27;7.27;;;17.80;97.30;;;;;;5097918;28;20545;-84
2021/06/30 09:49:36;;;;;;;9.80;6.37;;;17.90;97.30;;;;;;5098310;28;20408;-84
2021/06/30 09:52:16;;;;;;;8.37;6.23;;;17.90;97.30;;;;;;5099546;28;20432;-83
2021/06/30 09:54:44;;;;;;;10.80;6.80;;;18.00;97.30;;;;;;5097807;28;20424;-83
2021/06/30 09:57:13;;;;;;;10.30;6.87;;;18.00;97.30;;;;;;5099147;28;20419;-83
2021/06/30 09:59:47;;;;;;;10.33;6.60;;;18.10;97.30;;;;;;5098828;28;20512;-84
2021/06/30 10:02:18;;;;;;;10.17;7.33;;;18.10;97.30;;;;;;5098194;28;20495;-83
2021/06/30 10:04:46;;;;;;;12.90;7.23;;;18.10;97.30;;;;;;5097941;28;20495;-84
2021/06/30 10:07:14;;;;;;;12.57;8.13;;;18.10;97.30;;;;;;5114764;27;20980;-83
2021/06/30 10:09:57;;;;;;;9.57;7.30;;;18.10;97.30;;;;;;5118953;27;20419;-83
2021/06/30 10:12:25;;;;;;;9.63;6.40;;;18.10;97.30;;;;;;5116972;27;20431;-84
2021/06/30 10:14:51;;;;;;;9.13;6.30;;;18.10;97.30;;;;;;5117672;27;20513;-84
2021/06/30 10:17:17;;;;;;;8.03;5.60;;;18.10;97.30;;;;;;5118011;27;20459;-84
2021/06/30 10:19:49;;;;;;;9.27;5.63;;;17.90;97.30;;;;;;5117686;27;20462;-83
2021/06/30 10:22:15;;;;;;;7.70;5.63;;;17.90;97.30;;;;;;5117075;27;20212;-83
2021/06/30 10:24:42;;;;;;;10.87;5.90;;;17.90;97.30;;;;;;5117024;27;20867;-84
2021/06/30 10:27:09;;;;;;;8.77;5.10;;;17.80;97.30;;;;;;5118487;27;20407;-85
2021/06/30 10:29:38;;;;;;;7.57;5.20;;;17.80;97.30;;;;;;5117483;27;20419;-84
2021/06/30 10:32:09;;;;;;;7.30;5.10;;;17.80;97.30;;;;;;5116249;27;20426;-84
2021/06/30 10:34:40;;;;;;;7.40;5.33;;;17.80;97.30;;;;;;5117683;27;20491;-82
2021/06/30 10:37:30;;;;;;;7.90;5.00;;;17.80;97.30;;;;;;5117280;27;20422;-83
2021/06/30 10:40:14;;;;;;;8.47;5.50;;;17.80;97.30;;;;;;5117363;27;20457;-82
2021/06/30 10:42:48;;;;;;;9.90;4.70;;;17.80;97.30;;;;;;5134699;27;20619;-82
2021/06/30 10:45:14;;;;;;;7.93;6.10;;;17.80;97.30;;;;;;5117941;27;20458;-83
2021/06/30 10:47:45;;;;;;;9.00;5.40;;;17.80;97.30;;;;;;5117220;27;20433;-83
2021/06/30 10:50:23;;;;;;;6.30;5.20;;;17.80;97.30;;;;;;5116518;27;20648;-83
2021/06/30 10:53:15;;;;;;;13.70;5.53;;;17.90;97.30;;;;;;5116456;27;20414;-83
2021/06/30 10:55:51;;;;;;;8.27;5.20;;;17.80;97.30;;;;;;5093596;27;20497;-83
2021/06/30 10:58:19;;;;;;;11.83;6.00;;;17.80;97.30;;;;;;5116312;27;20418;-84
2021/06/30 11:00:48;;;;;;;8.40;5.80;;;17.90;97.30;;;;;;5117118;27;20430;-82
2021/06/30 11:03:45;;;;;;;10.93;5.47;;;18.00;97.30;;;;;;5117520;27;20415;-82
2021/06/30 11:06:14;;;;;;;7.50;5.50;;;18.00;97.30;;;;;;5117223;27;20411;-83
2021/06/30 11:09:07;;;;;;;7.80;4.60;;;18.10;97.30;;;;;;5118454;27;20422;-82
2021/06/30 11:11:33;;;;;;;14.73;5.63;;;18.20;97.30;;;;;;5118185;27;20442;-82
2021/06/30 11:14:19;;;;;;;12.63;5.60;;;18.30;97.30;;;;;;5118284;27;20419;-82
2021/06/30 11:16:50;;;;;;;7.83;5.07;;;18.40;97.30;;;;;;5117333;27;20411;-83
2021/06/30 11:19:16;;;;;;;7.00;4.47;;;18.40;97.30;;;;;;5116931;27;20451;-83
2021/06/30 11:22:05;;;;;;;7.43;5.00;;;18.50;97.30;;;;;;5117658;27;20783;-83
2021/06/30 11:24:43;;;;;;;6.63;4.50;;;18.60;97.30;;;;;;5117457;27;20173;-84
2021/06/30 11:27:13;;;;;;;7.40;4.47;;;18.60;97.30;;;;;;5117663;27;20513;-83
2021/06/30 11:30:01;;;;;;;5.63;3.90;;;18.70;97.30;;;;;;5118883;27;20483;-83
2021/06/30 11:32:35;;;;;;;5.40;4.00;;;18.90;97.30;;;;;;5118608;27;20469;-83
2021/06/30 11:35:10;;;;;;;17.03;4.93;;;18.90;97.30;;;;;;5119532;27;20405;-83
2021/06/30 11:37:41;;;;;;;4.50;3.60;;;18.90;97.30;;;;;;5118854;28;20453;-83
2021/06/30 11:40:22;;;;;;;7.13;4.03;;;19.00;97.30;;;;;;5120059;27;20519;-82
2021/06/30 11:42:51;;;;;;;6.80;3.53;;;19.10;97.30;;;;;;5120343;27;20467;-83
2021/06/30 11:45:16;;;;;;;6.20;4.03;;;19.10;97.30;;;;;;5117344;27;20517;-82
2021/06/30 11:47:43;;;;;;;5.03;3.10;;;19.10;97.30;;;;;;5116100;27;20418;-83
2021/06/30 11:50:16;;;;;;;5.67;3.50;;;19.10;97.30;;;;;;5118058;28;20169;-83
2021/06/30 11:52:42;;;;;;;8.90;3.37;;;19.10;97.30;;;;;;5118348;27;20422;-83
2021/06/30 11:55:08;;;;;;;5.73;2.87;;;19.20;97.30;;;;;;5117991;27;20417;-83
2021/06/30 11:57:34;;;;;;;9.50;2.90;;;19.20;97.30;;;;;;5118245;28;20415;-83
2021/06/30 12:00:08;;;;;;;4.50;3.20;;;19.20;97.30;;;;;;5120467;28;20204;-84
2021/06/30 12:02:51;;;;;;;4.17;3.20;;;19.30;97.30;;;;;;5120471;28;21008;-83
2021/06/30 12:05:18;;;;;;;4.67;3.47;;;19.40;97.30;;;;;;5118468;28;20410;-83
2021/06/30 12:07:46;;;;;;;6.07;3.33;;;19.50;97.30;;;;;;5096589;28;20462;-83
2021/06/30 12:10:12;;;;;;;3.57;3.43;;;19.50;97.30;;;;;;5098016;28;20485;-83
2021/06/30 12:12:39;;;;;;;3.90;3.47;;;19.60;97.30;;;;;;5097790;28;20443;-84
2021/06/30 12:15:07;;;;;;;4.73;3.03;;;19.80;97.30;;;;;;5097424;28;20416;-84
2021/06/30 12:17:33;;;;;;;5.07;3.80;;;19.90;97.30;;;;;;5097418;28;20558;-84
2021/06/30 12:20:01;;;;;;;4.73;3.33;;;20.00;97.30;;;;;;5097361;28;20488;-83
2021/06/30 12:22:27;;;;;;;5.47;3.97;;;20.00;97.30;;;;;;5098508;28;20680;-84
2021/06/30 12:25:19;;;;;;;4.63;3.17;;;20.00;97.30;;;;;;5098552;28;20417;-84
2021/06/30 12:27:52;;;;;;;4.10;2.70;;;20.10;97.30;;;;;;5100660;28;20435;-83
2021/06/30 12:30:23;;;;;;;4.97;3.33;;;20.20;97.30;;;;;;5104233;28;20413;-83
2021/06/30 12:32:53;;;;;;;9.07;3.47;;;20.40;97.30;;;;;;5099930;28;20415;-82
2021/06/30 12:35:48;;;;;;;6.00;3.30;;;20.60;97.30;;;;;;5098713;28;20419;-84
2021/06/30 12:38:31;;;;;;;6.47;2.80;;;20.70;97.30;;;;;;5093162;28;20405;-82
2021/06/30 12:41:09;;;;;;;5.63;2.90;;;20.80;97.30;;;;;;5115399;28;20473;-83
2021/06/30 12:43:34;;;;;;;2.83;2.40;;;20.90;97.30;;;;;;5122206;28;20433;-83
2021/06/30 12:46:00;;;;;;;3.37;2.77;;;20.80;97.30;;;;;;5122908;28;20458;-83
2021/06/30 12:48:34;;;;;;;2.53;2.33;;;20.80;97.30;;;;;;5126621;28;20479;-82
2021/06/30 12:51:12;;;;;;;3.60;2.97;;;20.80;97.30;;;;;;5128512;28;20218;-83
2021/06/30 12:53:42;;;;;;;2.80;2.53;;;20.90;97.30;;;;;;5111291;28;20411;-85
2021/06/30 12:56:23;;;;;;;3.30;2.73;;;21.00;97.30;;;;;;5118884;28;20411;-84
2021/06/30 12:58:55;;;;;;;3.47;3.27;;;21.10;97.30;;;;;;5118091;22;20490;-81
2021/06/30 13:01:33;;;;;;;3.10;2.80;;;21.10;97.30;;;;;;5069938;28;20433;-81
2021/06/30 13:04:06;;;;;;;6.80;2.90;;;21.30;97.30;;;;;;5093204;28;20397;-81
2021/06/30 13:06:34;;;;;;;3.10;2.57;;;21.40;97.30;;;;;;5076518;28;20915;-83
2021/06/30 13:09:07;;;;;;;5.03;2.70;;;21.60;97.30;;;;;;5080855;28;20506;-83
2021/06/30 13:11:41;;;;;;;4.40;3.23;;;21.70;97.30;;;;;;5078878;28;20425;-82
2021/06/30 13:14:10;;;;;;;3.10;2.70;;;21.70;97.30;;;;;;5077490;28;20919;-83
2021/06/30 13:17:01;;;;;;;4.20;2.90;;;21.60;97.30;;;;;;5078109;28;20475;-83
2021/06/30 13:19:33;;;;;;;3.63;2.83;;;21.50;97.30;;;;;;5077001;28;20483;-83
2021/06/30 13:22:18;;;;;;;3.73;2.70;;;21.30;97.30;;;;;;5077734;28;20439;-83
2021/06/30 13:24:54;;;;;;;6.37;3.00;;;21.10;97.30;;;;;;5075303;28;20824;-83
2021/06/30 13:35:40;;;;;;;6.13;3.53;;;20.90;97.30;;;;;;5094682;28;20407;-83
2021/06/30 13:38:19;;;;;;;4.00;3.07;;;20.90;97.30;;;;;;5070992;28;20420;-84
2021/06/30 13:40:47;;;;;;;3.20;2.67;;;21.00;97.30;;;;;;5075524;28;20441;-83
2021/06/30 13:43:14;;;;;;;2.73;2.63;;;21.00;97.30;;;;;;5078366;28;20409;-83
2021/06/30 13:45:40;;;;;;;10.00;2.70;;;21.10;97.30;;;;;;5094959;28;20405;-85
2021/06/30 13:48:07;;;;;;;4.53;2.77;;;21.10;97.30;;;;;;5078527;28;20413;-83
2021/06/30 13:50:35;;;;;;;4.53;3.00;;;21.20;97.30;;;;;;5080343;28;20208;-83
2021/06/30 13:53:01;;;;;;;3.53;2.87;;;21.10;97.30;;;;;;5078047;28;20413;-83
2021/06/30 13:55:27;;;;;;;3.00;2.80;;;21.10;97.30;;;;;;5096229;28;20413;-83
2021/06/30 13:57:53;;;;;;;3.90;3.27;;;21.00;97.30;;;;;;5080277;28;20459;-83